createdAt,value
2019-01-26T00:00:15.659Z,91.15
2019-01-26T00:01:15.638Z,90.39
2019-01-26T00:02:15.624Z,91.15
2019-01-26T00:03:15.604Z,91.53
2019-01-26T00:04:15.587Z,91.24
2019-01-26T00:05:15.567Z,91.43
2019-01-26T00:06:15.552Z,92.1
2019-01-26T00:07:15.533Z,91.81
2019-01-26T00:08:15.514Z,92.19
2019-01-26T00:09:15.499Z,92.38
2019-01-26T00:10:15.487Z,92.57
2019-01-26T00:11:15.470Z,93.13
2019-01-26T00:12:15.447Z,93.13
2019-01-26T00:13:15.430Z,92.85
2019-01-26T00:14:15.413Z,93.51
2019-01-26T00:15:15.400Z,93.51
2019-01-26T00:16:20.870Z,93.23
2019-01-26T00:17:15.358Z,93.32
2019-01-26T00:18:15.341Z,93.42
2019-01-26T00:19:15.325Z,93.42
2019-01-26T00:20:15.308Z,93.61
2019-01-26T00:21:15.290Z,93.51
2019-01-26T00:22:15.275Z,93.32
2019-01-26T00:23:15.256Z,93.7
2019-01-26T00:24:15.242Z,93.32
2019-01-26T00:25:15.221Z,93.32
2019-01-26T00:26:15.203Z,93.13
2019-01-26T00:27:15.186Z,93.42
2019-01-26T00:28:15.181Z,93.42
2019-01-26T00:29:15.153Z,93.51
2019-01-26T00:30:15.134Z,93.8
2019-01-26T00:31:15.117Z,93.7
2019-01-26T00:32:15.099Z,93.23
2019-01-26T00:33:15.082Z,94.18
2019-01-26T00:34:15.074Z,93.99
2019-01-26T00:35:15.047Z,94.08
2019-01-26T00:36:15.032Z,94.18
2019-01-26T00:37:15.015Z,94.56
2019-01-26T00:38:14.995Z,94.37
2019-01-26T00:39:14.978Z,94.46
2019-01-26T00:40:14.970Z,94.74
2019-01-26T00:41:14.942Z,94.46
2019-01-26T00:42:14.929Z,94.56
2019-01-26T00:43:14.913Z,94.18
2019-01-26T00:44:14.890Z,95.12
2019-01-26T00:45:14.876Z,94.93
2019-01-26T00:46:14.871Z,95.03
2019-01-26T00:47:14.839Z,95.45
2019-01-26T00:48:14.823Z,94.89
2019-01-26T00:49:14.807Z,94.98
2019-01-26T00:50:14.788Z,95.36
2019-01-26T00:51:19.530Z,95.03
2019-01-26T00:52:14.753Z,95.55
2019-01-26T00:53:14.734Z,95.55
2019-01-26T00:54:14.719Z,95.55
2019-01-26T00:55:14.701Z,95.26
2019-01-26T00:56:14.685Z,95.26
2019-01-26T00:57:14.664Z,95.26
2019-01-26T00:58:14.650Z,95.36
2019-01-26T00:59:14.633Z,95.36
2019-01-26T01:00:14.616Z,95.45
2019-01-26T01:01:14.598Z,95.45
2019-01-26T01:02:14.581Z,96.02
2019-01-26T01:03:14.565Z,95.83
2019-01-26T01:04:14.546Z,95.64
2019-01-26T01:05:14.537Z,95.93
2019-01-26T01:06:14.508Z,95.93
2019-01-26T01:07:14.494Z,95.83
2019-01-26T01:08:14.475Z,95.55
2019-01-26T01:09:14.459Z,96.02
2019-01-26T01:10:14.442Z,96.4
2019-01-26T01:11:14.424Z,96.21
2019-01-26T01:12:14.413Z,96.97
2019-01-26T01:13:14.390Z,96.78
2019-01-26T01:14:14.372Z,97.25
2019-01-26T01:15:14.355Z,96.97
2019-01-26T01:16:14.336Z,97.72
2019-01-26T01:17:14.322Z,98.2
2019-01-26T01:18:14.305Z,98.39
2019-01-26T01:19:14.290Z,98.67
2019-01-26T01:20:14.273Z,99.05
2019-01-26T01:21:14.253Z,99.24
2019-01-26T01:22:14.236Z,99.19
2019-01-26T01:23:14.235Z,99.76
2019-01-26T01:24:14.203Z,99.85
2019-01-26T01:25:14.194Z,99.66
2019-01-26T01:26:14.166Z,99.99
2019-01-26T01:27:14.150Z,99.66
2019-01-26T01:28:14.133Z,99.85
2019-01-26T01:29:14.113Z,99.99
2019-01-26T01:30:14.098Z,99.99
2019-01-26T01:31:14.080Z,99.99
2019-01-26T01:32:14.064Z,99.85
2019-01-26T01:33:15.574Z,99.99
2019-01-26T01:34:14.034Z,99.99
2019-01-26T01:35:14.014Z,99.99
2019-01-26T01:36:13.992Z,99.99
2019-01-26T01:37:13.975Z,99.99
2019-01-26T01:38:13.957Z,99.99
2019-01-26T01:39:13.940Z,99.99
2019-01-26T01:40:13.921Z,99.99
2019-01-26T01:41:13.905Z,99.99
2019-01-26T01:42:13.898Z,99.99
2019-01-26T01:43:13.870Z,99.99
2019-01-26T01:44:13.857Z,99.99
2019-01-26T01:45:13.834Z,99.99
2019-01-26T01:46:13.815Z,99.99
2019-01-26T01:47:13.800Z,99.99
2019-01-26T01:48:13.784Z,99.99
2019-01-26T01:49:13.765Z,99.99
2019-01-26T01:50:13.747Z,99.99
2019-01-26T01:51:13.732Z,99.99
2019-01-26T01:52:13.713Z,99.99
2019-01-26T01:53:13.696Z,99.99
2019-01-26T01:54:13.682Z,99.99
2019-01-26T01:55:13.663Z,99.99
2019-01-26T01:56:13.646Z,99.99
2019-01-26T01:57:13.626Z,99.99
2019-01-26T01:58:13.610Z,99.99
2019-01-26T01:59:13.593Z,99.99
2019-01-26T02:00:13.575Z,99.99
2019-01-26T02:01:13.556Z,99.99
2019-01-26T02:02:13.539Z,99.99
2019-01-26T02:03:13.524Z,99.99
2019-01-26T02:04:13.506Z,99.99
2019-01-26T02:05:13.489Z,99.99
2019-01-26T02:06:13.470Z,99.99
2019-01-26T02:07:13.453Z,99.99
2019-01-26T02:08:13.435Z,99.99
2019-01-26T02:09:13.418Z,99.99
2019-01-26T02:10:13.407Z,99.99
2019-01-26T02:11:13.385Z,99.99
2019-01-26T02:12:13.369Z,99.99
2019-01-26T02:13:13.350Z,99.99
2019-01-26T02:14:13.331Z,99.99
2019-01-26T02:15:13.313Z,99.99
2019-01-26T02:16:13.296Z,99.99
2019-01-26T02:17:13.282Z,99.99
2019-01-26T02:18:13.263Z,99.99
2019-01-26T02:19:13.245Z,99.99
2019-01-26T02:20:13.227Z,99.99
2019-01-26T02:21:13.210Z,99.99
2019-01-26T02:22:13.196Z,99.99
2019-01-26T02:23:13.176Z,99.99
2019-01-26T02:24:13.157Z,99.99
2019-01-26T02:25:13.148Z,99.99
2019-01-26T02:26:13.127Z,99.99
2019-01-26T02:27:13.107Z,99.99
2019-01-26T02:28:13.094Z,99.99
2019-01-26T02:29:12.831Z,99.99
2019-01-26T02:30:13.059Z,99.99
2019-01-26T02:31:13.057Z,99.99
2019-01-26T02:32:13.020Z,99.99
2019-01-26T02:33:13.004Z,99.99
2019-01-26T02:34:12.983Z,99.99
2019-01-26T02:35:12.969Z,99.99
2019-01-26T02:36:12.951Z,99.99
2019-01-26T02:37:12.937Z,99.99
2019-01-26T02:38:12.915Z,99.99
2019-01-26T02:39:12.909Z,99.99
2019-01-26T02:40:12.882Z,99.99
2019-01-26T02:41:12.870Z,99.99
2019-01-26T02:42:12.851Z,99.99
2019-01-26T02:43:12.830Z,99.99
2019-01-26T02:44:12.812Z,99.99
2019-01-26T02:45:12.794Z,99.99
2019-01-26T02:46:12.779Z,99.99
2019-01-26T02:47:12.760Z,99.99
2019-01-26T02:48:12.744Z,99.99
2019-01-26T02:49:12.725Z,99.99
2019-01-26T02:50:12.712Z,99.99
2019-01-26T02:51:12.694Z,99.99
2019-01-26T02:52:12.678Z,99.99
2019-01-26T02:53:12.657Z,99.99
2019-01-26T02:54:12.644Z,99.99
2019-01-26T02:55:12.626Z,99.99
2019-01-26T02:56:12.615Z,99.99
2019-01-26T02:57:12.592Z,99.99
2019-01-26T02:58:12.572Z,99.99
2019-01-26T02:59:12.563Z,99.99
2019-01-26T03:00:12.537Z,99.99
2019-01-26T03:01:12.519Z,99.99
2019-01-26T03:02:12.509Z,99.99
2019-01-26T03:03:12.485Z,99.99
2019-01-26T03:04:12.470Z,99.99
2019-01-26T03:05:12.452Z,99.99
2019-01-26T03:06:12.436Z,99.99
2019-01-26T03:07:12.417Z,99.99
2019-01-26T03:08:12.398Z,99.99
2019-01-26T03:09:12.381Z,99.99
2019-01-26T03:10:12.374Z,99.99
2019-01-26T03:11:12.356Z,99.99
2019-01-26T03:12:12.332Z,99.99
2019-01-26T03:13:12.321Z,99.99
2019-01-26T03:14:12.301Z,99.99
2019-01-26T03:15:12.287Z,99.99
2019-01-26T03:16:12.330Z,99.99
2019-01-26T03:17:12.254Z,99.99
2019-01-26T03:18:12.226Z,99.99
2019-01-26T03:19:12.209Z,99.99
2019-01-26T03:20:12.193Z,99.99
2019-01-26T03:21:11.933Z,99.99
2019-01-26T03:22:12.160Z,99.99
2019-01-26T03:23:12.146Z,99.99
2019-01-26T03:24:12.129Z,99.99
2019-01-26T03:25:12.112Z,99.99
2019-01-26T03:26:12.088Z,99.99
2019-01-26T03:27:12.071Z,99.99
2019-01-26T03:28:12.054Z,99.99
2019-01-26T03:29:12.034Z,99.99
2019-01-26T03:30:12.022Z,99.99
2019-01-26T03:31:12.009Z,99.99
2019-01-26T03:32:12.008Z,99.99
2019-01-26T03:33:11.997Z,99.99
2019-01-26T03:34:11.953Z,99.99
2019-01-26T03:35:11.937Z,99.99
2019-01-26T03:36:11.917Z,99.99
2019-01-26T03:37:11.898Z,99.99
2019-01-26T03:38:11.883Z,99.99
2019-01-26T03:39:11.899Z,99.99
2019-01-26T03:40:11.846Z,99.99
2019-01-26T03:41:11.834Z,99.99
2019-01-26T03:42:11.811Z,99.99
2019-01-26T03:43:11.795Z,99.99
2019-01-26T03:44:11.777Z,99.99
2019-01-26T03:45:11.761Z,99.99
2019-01-26T03:46:11.745Z,99.99
2019-01-26T03:47:16.067Z,99.99
2019-01-26T03:48:11.707Z,99.99
2019-01-26T03:49:11.694Z,99.99
2019-01-26T03:50:11.675Z,99.99
2019-01-26T03:51:11.659Z,99.99
2019-01-26T03:52:11.637Z,99.99
2019-01-26T03:53:11.624Z,99.99
2019-01-26T03:54:11.620Z,99.99
2019-01-26T03:55:11.593Z,99.99
2019-01-26T03:56:11.573Z,99.99
2019-01-26T03:57:11.552Z,99.99
2019-01-26T03:58:11.540Z,99.99
2019-01-26T03:59:11.519Z,99.99
2019-01-26T04:00:11.501Z,99.99
2019-01-26T04:01:11.482Z,99.99
2019-01-26T04:02:11.470Z,99.99
2019-01-26T04:03:11.459Z,99.99
2019-01-26T04:04:11.437Z,99.99
2019-01-26T04:05:11.418Z,99.99
2019-01-26T04:06:11.397Z,99.99
2019-01-26T04:07:11.379Z,99.99
2019-01-26T04:08:11.364Z,99.99
2019-01-26T04:09:11.343Z,99.99
2019-01-26T04:10:11.339Z,99.99
2019-01-26T04:11:11.313Z,99.99
2019-01-26T04:12:11.296Z,99.99
2019-01-26T04:13:11.282Z,99.99
2019-01-26T04:14:11.263Z,99.99
2019-01-26T04:15:11.241Z,99.99
2019-01-26T04:16:11.230Z,99.99
2019-01-26T04:17:11.213Z,99.99
2019-01-26T04:18:11.192Z,99.99
2019-01-26T04:19:11.173Z,99.99
2019-01-26T04:20:11.156Z,99.99
2019-01-26T04:21:11.139Z,99.99
2019-01-26T04:22:11.121Z,99.99
2019-01-26T04:23:11.108Z,99.99
2019-01-26T04:24:11.084Z,99.99
2019-01-26T04:25:11.069Z,99.99
2019-01-26T04:26:11.055Z,99.99
2019-01-26T04:27:11.034Z,99.99
2019-01-26T04:28:11.017Z,99.99
2019-01-26T04:29:11.481Z,99.99
2019-01-26T04:30:10.984Z,99.99
2019-01-26T04:31:10.975Z,99.99
2019-01-26T04:32:10.954Z,99.99
2019-01-26T04:33:10.935Z,99.99
2019-01-26T04:34:10.918Z,99.99
2019-01-26T04:35:10.902Z,99.99
2019-01-26T04:36:10.883Z,99.99
2019-01-26T04:37:10.866Z,99.99
2019-01-26T04:38:10.863Z,99.99
2019-01-26T04:39:10.833Z,99.99
2019-01-26T04:40:10.820Z,99.99
2019-01-26T04:41:10.800Z,99.99
2019-01-26T04:42:10.788Z,99.99
2019-01-26T04:43:10.766Z,99.99
2019-01-26T04:44:10.755Z,99.99
2019-01-26T04:45:10.736Z,99.99
2019-01-26T04:46:10.718Z,99.99
2019-01-26T04:47:10.693Z,99.99
2019-01-26T04:48:10.678Z,99.99
2019-01-26T04:49:10.667Z,99.99
2019-01-26T04:50:10.695Z,99.99
2019-01-26T04:51:10.630Z,99.99
2019-01-26T04:52:10.626Z,99.99
2019-01-26T04:53:10.636Z,99.99
2019-01-26T04:54:10.577Z,99.99
2019-01-26T04:55:10.323Z,99.99
2019-01-26T04:56:10.585Z,99.99
2019-01-26T04:57:10.541Z,99.99
2019-01-26T04:58:10.510Z,99.99
2019-01-26T04:59:10.491Z,99.99
2019-01-26T05:00:10.474Z,99.99
2019-01-26T05:01:10.456Z,99.99
2019-01-26T05:02:10.444Z,99.99
2019-01-26T05:03:10.425Z,99.99
2019-01-26T05:04:10.408Z,99.99
2019-01-26T05:05:10.390Z,99.99
2019-01-26T05:06:10.373Z,99.99
2019-01-26T05:07:10.355Z,99.99
2019-01-26T05:08:10.338Z,99.99
2019-01-26T05:09:10.321Z,99.99
2019-01-26T05:10:10.309Z,99.99
2019-01-26T05:11:10.289Z,99.99
2019-01-26T05:12:10.280Z,99.99
2019-01-26T05:13:10.255Z,99.99
2019-01-26T05:14:10.238Z,99.99
2019-01-26T05:15:10.222Z,99.99
2019-01-26T05:16:10.204Z,99.99
2019-01-26T05:17:10.188Z,99.99
2019-01-26T05:18:10.172Z,99.99
2019-01-26T05:19:10.160Z,99.99
2019-01-26T05:20:10.140Z,99.99
2019-01-26T05:21:10.121Z,99.99
2019-01-26T05:22:10.104Z,99.99
2019-01-26T05:23:10.402Z,99.99
2019-01-26T05:24:10.072Z,99.99
2019-01-26T05:25:10.057Z,99.99
2019-01-26T05:26:10.037Z,99.99
2019-01-26T05:27:10.024Z,99.99
2019-01-26T05:28:10.003Z,99.99
2019-01-26T05:29:09.989Z,99.99
2019-01-26T05:30:09.975Z,99.99
2019-01-26T05:31:09.968Z,99.99
2019-01-26T05:32:09.942Z,99.99
2019-01-26T05:33:09.928Z,99.99
2019-01-26T05:34:09.906Z,99.99
2019-01-26T05:35:09.922Z,99.99
2019-01-26T05:36:09.874Z,99.99
2019-01-26T05:37:09.859Z,99.99
2019-01-26T05:38:09.840Z,99.99
2019-01-26T05:39:09.822Z,99.99
2019-01-26T05:40:09.806Z,99.99
2019-01-26T05:41:09.792Z,99.99
2019-01-26T05:42:09.786Z,99.99
2019-01-26T05:43:09.757Z,99.99
2019-01-26T05:44:09.741Z,99.99
2019-01-26T05:45:09.724Z,99.99
2019-01-26T05:46:09.712Z,99.99
2019-01-26T05:47:09.689Z,99.99
2019-01-26T05:48:09.679Z,99.99
2019-01-26T05:49:09.667Z,99.99
2019-01-26T05:50:09.646Z,99.99
2019-01-26T05:51:09.623Z,99.99
2019-01-26T05:52:09.607Z,99.99
2019-01-26T05:53:09.622Z,99.99
2019-01-26T05:54:09.574Z,99.99
2019-01-26T05:55:09.605Z,99.99
2019-01-26T05:56:09.550Z,99.99
2019-01-26T05:57:09.527Z,99.99
2019-01-26T05:58:09.512Z,99.99
2019-01-26T05:59:09.493Z,99.99
2019-01-26T06:00:09.485Z,99.99
2019-01-26T06:01:09.470Z,99.99
2019-01-26T06:02:09.443Z,99.99
2019-01-26T06:03:09.439Z,99.99
2019-01-26T06:04:09.412Z,99.99
2019-01-26T06:05:09.398Z,99.99
2019-01-26T06:06:09.384Z,99.99
2019-01-26T06:07:09.366Z,99.99
2019-01-26T06:08:09.350Z,99.99
2019-01-26T06:09:09.331Z,99.99
2019-01-26T06:10:09.315Z,99.99
2019-01-26T06:11:09.300Z,99.99
2019-01-26T06:12:09.294Z,99.99
2019-01-26T06:13:09.270Z,99.99
2019-01-26T06:14:09.255Z,99.99
2019-01-26T06:15:09.237Z,99.99
2019-01-26T06:16:09.220Z,99.99
2019-01-26T06:17:09.201Z,99.99
2019-01-26T06:18:09.186Z,99.99
2019-01-26T06:19:09.169Z,99.99
2019-01-26T06:20:09.155Z,99.99
2019-01-26T06:21:09.138Z,99.99
2019-01-26T06:22:09.120Z,99.99
2019-01-26T06:23:09.103Z,99.99
2019-01-26T06:24:09.088Z,99.99
2019-01-26T06:25:09.075Z,99.99
2019-01-26T06:26:09.055Z,99.99
2019-01-26T06:27:09.041Z,99.99
2019-01-26T06:28:09.025Z,99.99
2019-01-26T06:29:09.007Z,99.99
2019-01-26T06:30:08.992Z,99.99
2019-01-26T06:31:08.976Z,99.99
2019-01-26T06:32:08.959Z,99.99
2019-01-26T06:33:08.944Z,99.99
2019-01-26T06:34:08.928Z,99.99
2019-01-26T06:35:08.672Z,99.99
2019-01-26T06:36:08.894Z,99.99
2019-01-26T06:37:08.880Z,99.99
2019-01-26T06:38:08.865Z,99.99
2019-01-26T06:39:08.848Z,99.99
2019-01-26T06:40:08.832Z,99.99
2019-01-26T06:41:08.818Z,99.99
2019-01-26T06:42:08.805Z,99.99
2019-01-26T06:43:08.785Z,99.99
2019-01-26T06:44:08.768Z,99.99
2019-01-26T06:45:08.754Z,99.99
2019-01-26T06:46:08.736Z,99.99
2019-01-26T06:47:08.723Z,99.99
2019-01-26T06:48:08.707Z,99.99
2019-01-26T06:49:08.690Z,99.99
2019-01-26T06:50:08.674Z,99.99
2019-01-26T06:51:08.660Z,99.99
2019-01-26T06:52:08.644Z,99.99
2019-01-26T06:53:08.626Z,99.99
2019-01-26T06:54:08.620Z,99.99
2019-01-26T06:55:08.595Z,99.99
2019-01-26T06:56:08.581Z,99.99
2019-01-26T06:57:08.565Z,99.99
2019-01-26T06:58:08.551Z,99.99
2019-01-26T06:59:08.534Z,99.99
2019-01-26T07:00:08.522Z,99.99
2019-01-26T07:01:08.511Z,99.99
2019-01-26T07:02:08.485Z,99.99
2019-01-26T07:03:08.471Z,99.99
2019-01-26T07:04:08.461Z,99.99
2019-01-26T07:05:08.444Z,99.99
2019-01-26T07:06:08.422Z,99.99
2019-01-26T07:07:08.409Z,99.99
2019-01-26T07:08:08.390Z,99.99
2019-01-26T07:09:08.376Z,99.99
2019-01-26T07:10:08.364Z,99.99
2019-01-26T07:11:08.348Z,99.99
2019-01-26T07:12:08.329Z,99.99
2019-01-26T07:13:08.322Z,99.99
2019-01-26T07:14:08.302Z,99.99
2019-01-26T07:15:08.283Z,99.99
2019-01-26T07:16:08.270Z,99.99
2019-01-26T07:17:08.269Z,99.99
2019-01-26T07:18:12.013Z,99.99
2019-01-26T07:19:08.221Z,99.99
2019-01-26T07:20:08.210Z,99.99
2019-01-26T07:21:08.191Z,99.96
2019-01-26T07:22:08.175Z,99.99
2019-01-26T07:23:08.160Z,99.99
2019-01-26T07:24:08.147Z,99.99
2019-01-26T07:25:08.533Z,99.99
2019-01-26T07:26:08.121Z,99.58
2019-01-26T07:27:08.101Z,99.67
2019-01-26T07:28:08.087Z,99.86
2019-01-26T07:29:08.068Z,99.96
2019-01-26T07:30:08.056Z,99.96
2019-01-26T07:31:09.074Z,99.77
2019-01-26T07:32:08.022Z,99.77
2019-01-26T07:33:08.008Z,99.86
2019-01-26T07:34:07.994Z,99.99
2019-01-26T07:35:07.976Z,99.72
2019-01-26T07:36:07.961Z,99.86
2019-01-26T07:37:07.944Z,99.48
2019-01-26T07:38:13.450Z,99.77
2019-01-26T07:39:07.914Z,99.48
2019-01-26T07:40:07.899Z,99.48
2019-01-26T07:41:07.882Z,99.53
2019-01-26T07:42:07.870Z,99.53
2019-01-26T07:43:07.854Z,99.82
2019-01-26T07:44:07.839Z,99.63
2019-01-26T07:45:07.821Z,99.63
2019-01-26T07:46:07.807Z,99.53
2019-01-26T07:47:07.793Z,99.63
2019-01-26T07:48:07.781Z,99.63
2019-01-26T07:49:07.762Z,99.99
2019-01-26T07:50:07.751Z,99.91
2019-01-26T07:51:07.733Z,99.82
2019-01-26T07:52:07.716Z,99.53
2019-01-26T07:53:07.702Z,99.91
2019-01-26T07:54:07.688Z,99.82
2019-01-26T07:55:07.671Z,99.63
2019-01-26T07:56:07.655Z,99.63
2019-01-26T07:57:07.640Z,99.53
2019-01-26T07:58:07.628Z,99.91
2019-01-26T07:59:07.622Z,99.72
2019-01-26T08:00:07.597Z,99.44
2019-01-26T08:01:07.584Z,99.15
2019-01-26T08:02:07.567Z,99.15
2019-01-26T08:03:07.551Z,99.06
2019-01-26T08:04:07.539Z,99.15
2019-01-26T08:05:07.525Z,98.96
2019-01-26T08:06:07.510Z,99.15
2019-01-26T08:07:07.494Z,99.15
2019-01-26T08:08:07.477Z,99.15
2019-01-26T08:09:07.460Z,99.25
2019-01-26T08:10:07.447Z,99.15
2019-01-26T08:11:07.433Z,98.68
2019-01-26T08:12:07.424Z,99.15
2019-01-26T08:13:07.411Z,99.15
2019-01-26T08:14:07.391Z,98.96
2019-01-26T08:15:07.376Z,99.06
2019-01-26T08:16:07.358Z,98.68
2019-01-26T08:17:07.343Z,98.68
2019-01-26T08:18:07.329Z,98.87
2019-01-26T08:19:07.317Z,98.77
2019-01-26T08:20:07.305Z,98.87
2019-01-26T08:21:07.289Z,98.87
2019-01-26T08:22:07.275Z,98.87
2019-01-26T08:23:07.272Z,99.15
2019-01-26T08:24:07.246Z,98.96
2019-01-26T08:25:07.236Z,98.77
2019-01-26T08:26:07.213Z,98.87
2019-01-26T08:27:07.200Z,98.87
2019-01-26T08:28:07.192Z,99.01
2019-01-26T08:29:07.168Z,98.92
2019-01-26T08:30:07.153Z,98.96
2019-01-26T08:31:07.140Z,99.01
2019-01-26T08:32:07.124Z,98.16
2019-01-26T08:33:07.112Z,98.63
2019-01-26T08:34:07.100Z,98.63
2019-01-26T08:35:07.080Z,98.54
2019-01-26T08:36:07.067Z,98.35
2019-01-26T08:37:07.050Z,98.25
2019-01-26T08:38:07.036Z,98.35
2019-01-26T08:39:07.025Z,98.35
2019-01-26T08:40:07.010Z,98.44
2019-01-26T08:41:06.993Z,98.16
2019-01-26T08:42:06.980Z,98.54
2019-01-26T08:43:06.963Z,98.07
2019-01-26T08:44:06.953Z,98.07
2019-01-26T08:45:06.935Z,98.25
2019-01-26T08:46:06.922Z,98.25
2019-01-26T08:47:06.908Z,98.25
2019-01-26T08:48:06.893Z,98.07
2019-01-26T08:49:06.881Z,97.88
2019-01-26T08:50:06.870Z,97.88
2019-01-26T08:51:06.853Z,98.07
2019-01-26T08:52:06.836Z,98.16
2019-01-26T08:53:06.821Z,98.16
2019-01-26T08:54:06.807Z,98.35
2019-01-26T08:55:06.795Z,98.25
2019-01-26T08:56:06.779Z,98.07
2019-01-26T08:57:06.764Z,97.88
2019-01-26T08:58:06.750Z,98.16
2019-01-26T08:59:06.737Z,98.16
2019-01-26T09:00:06.719Z,98.63
2019-01-26T09:01:06.709Z,98.25
2019-01-26T09:02:06.692Z,97.97
2019-01-26T09:03:06.680Z,97.59
2019-01-26T09:04:06.771Z,97.69
2019-01-26T09:05:06.650Z,97.64
2019-01-26T09:06:06.636Z,97.69
2019-01-26T09:07:06.623Z,97.69
2019-01-26T09:08:06.607Z,97.64
2019-01-26T09:09:06.597Z,98.21
2019-01-26T09:10:06.583Z,97.83
2019-01-26T09:11:06.569Z,98.21
2019-01-26T09:12:06.551Z,97.64
2019-01-26T09:13:06.537Z,97.83
2019-01-26T09:14:06.525Z,98.02
2019-01-26T09:15:06.509Z,98.21
2019-01-26T09:16:06.496Z,97.74
2019-01-26T09:17:06.486Z,97.83
2019-01-26T09:18:06.470Z,98.11
2019-01-26T09:19:06.460Z,98.02
2019-01-26T09:20:06.442Z,97.83
2019-01-26T09:21:06.428Z,98.3
2019-01-26T09:22:06.413Z,97.59
2019-01-26T09:23:06.398Z,97.78
2019-01-26T09:24:06.385Z,98.02
2019-01-26T09:25:06.371Z,98.21
2019-01-26T09:26:06.358Z,98.3
2019-01-26T09:27:06.345Z,98.4
2019-01-26T09:28:06.331Z,98.49
2019-01-26T09:29:06.314Z,97.64
2019-01-26T09:30:06.300Z,98.02
2019-01-26T09:31:06.287Z,98.68
2019-01-26T09:32:06.292Z,98.49
2019-01-26T09:33:06.258Z,98.11
2019-01-26T09:34:06.248Z,98.3
2019-01-26T09:35:06.230Z,98.68
2019-01-26T09:36:06.219Z,97.83
2019-01-26T09:37:06.203Z,98.49
2019-01-26T09:38:06.192Z,98.21
2019-01-26T09:39:06.177Z,97.83
2019-01-26T09:40:06.162Z,98.02
2019-01-26T09:41:06.147Z,98.21
2019-01-26T09:42:06.139Z,97.64
2019-01-26T09:43:06.120Z,98.3
2019-01-26T09:44:06.105Z,98.4
2019-01-26T09:45:06.094Z,98.49
2019-01-26T09:46:06.077Z,98.3
2019-01-26T09:47:06.066Z,98.21
2019-01-26T09:48:06.052Z,98.3
2019-01-26T09:49:06.038Z,98.3
2019-01-26T09:50:06.025Z,98.4
2019-01-26T09:51:06.039Z,98.68
2019-01-26T09:52:05.998Z,98.59
2019-01-26T09:53:05.988Z,98.49
2019-01-26T09:54:05.974Z,98.3
2019-01-26T09:55:05.955Z,98.4
2019-01-26T09:56:05.942Z,97.92
2019-01-26T09:57:05.929Z,98.3
2019-01-26T09:58:05.914Z,98.35
2019-01-26T09:59:05.903Z,98.73
2019-01-26T10:00:05.894Z,98.4
2019-01-26T10:01:05.873Z,99.01
2019-01-26T10:02:05.862Z,98.73
2019-01-26T10:03:05.852Z,98.73
2019-01-26T10:04:05.835Z,98.92
2019-01-26T10:05:05.822Z,98.78
2019-01-26T10:06:05.805Z,98.97
2019-01-26T10:07:05.798Z,98.68
2019-01-26T10:08:05.776Z,98.78
2019-01-26T10:09:05.762Z,98.68
2019-01-26T10:10:05.750Z,98.87
2019-01-26T10:11:05.735Z,98.87
2019-01-26T10:12:05.730Z,98.78
2019-01-26T10:13:05.708Z,98.68
2019-01-26T10:14:05.695Z,98.68
2019-01-26T10:15:05.684Z,98.59
2019-01-26T10:16:05.666Z,98.78
2019-01-26T10:17:05.657Z,98.78
2019-01-26T10:18:05.639Z,98.68
2019-01-26T10:19:05.626Z,98.87
2019-01-26T10:20:05.613Z,99.06
2019-01-26T10:21:05.597Z,98.97
2019-01-26T10:22:05.584Z,98.3
2019-01-26T10:23:05.568Z,98.59
2019-01-26T10:24:05.555Z,98.11
2019-01-26T10:25:05.541Z,98.59
2019-01-26T10:26:05.531Z,98.68
2019-01-26T10:27:05.516Z,98.59
2019-01-26T10:28:05.502Z,98.11
2019-01-26T10:29:05.486Z,98.87
2019-01-26T10:30:05.474Z,98.78
2019-01-26T10:31:05.466Z,98.78
2019-01-26T10:32:05.450Z,98.21
2019-01-26T10:33:05.443Z,98.49
2019-01-26T10:34:05.419Z,98.3
2019-01-26T10:35:05.407Z,98.68
2019-01-26T10:36:05.391Z,98.59
2019-01-26T10:37:05.377Z,98.4
2019-01-26T10:38:05.367Z,98.68
2019-01-26T10:39:05.355Z,98.4
2019-01-26T10:40:05.339Z,98.49
2019-01-26T10:41:05.326Z,98.78
2019-01-26T10:42:05.312Z,98.21
2019-01-26T10:43:05.299Z,98.68
2019-01-26T10:44:05.284Z,98.78
2019-01-26T10:45:05.269Z,98.59
2019-01-26T10:46:05.256Z,98.4
2019-01-26T10:47:05.241Z,98.87
2019-01-26T10:48:04.985Z,98.49
2019-01-26T10:49:05.217Z,98.3
2019-01-26T10:50:05.204Z,98.21
2019-01-26T10:51:05.193Z,98.68
2019-01-26T10:52:05.181Z,98.97
2019-01-26T10:53:05.164Z,98.87
2019-01-26T10:54:05.151Z,98.59
2019-01-26T10:55:05.138Z,98.78
2019-01-26T10:56:05.127Z,98.3
2019-01-26T10:57:05.124Z,98.87
2019-01-26T10:58:05.100Z,98.68
2019-01-26T10:59:05.081Z,98.4
2019-01-26T11:00:05.071Z,98.59
2019-01-26T11:01:05.051Z,98.4
2019-01-26T11:02:05.041Z,98.59
2019-01-26T11:03:05.026Z,98.4
2019-01-26T11:04:05.012Z,98.87
2019-01-26T11:05:05.014Z,98.68
2019-01-26T11:06:04.983Z,98.3
2019-01-26T11:07:04.975Z,98.59
2019-01-26T11:08:04.960Z,98.97
2019-01-26T11:09:04.943Z,98.3
2019-01-26T11:10:04.934Z,98.21
2019-01-26T11:11:04.920Z,98.4
2019-01-26T11:12:04.905Z,98.16
2019-01-26T11:13:04.891Z,98.73
2019-01-26T11:14:04.876Z,98.45
2019-01-26T11:15:04.865Z,98.35
2019-01-26T11:16:04.850Z,98.45
2019-01-26T11:17:04.837Z,98.26
2019-01-26T11:18:04.823Z,98.35
2019-01-26T11:19:10.342Z,98.26
2019-01-26T11:20:04.803Z,98.35
2019-01-26T11:21:04.783Z,98.35
2019-01-26T11:22:04.770Z,98.26
2019-01-26T11:23:04.756Z,98.45
2019-01-26T11:24:04.743Z,98.35
2019-01-26T11:25:04.730Z,98.26
2019-01-26T11:26:04.721Z,98.16
2019-01-26T11:27:04.707Z,98.16
2019-01-26T11:28:04.699Z,97.88
2019-01-26T11:29:04.680Z,98.07
2019-01-26T11:30:04.670Z,98.64
2019-01-26T11:31:04.666Z,98.07
2019-01-26T11:32:04.644Z,98.45
2019-01-26T11:33:04.630Z,98.35
2019-01-26T11:34:04.618Z,98.54
2019-01-26T11:35:04.608Z,98.35
2019-01-26T11:36:04.589Z,98.26
2019-01-26T11:37:04.333Z,98.26
2019-01-26T11:38:04.561Z,98.45
2019-01-26T11:39:04.549Z,98.54
2019-01-26T11:40:04.540Z,98.45
2019-01-26T11:41:04.522Z,98.45
2019-01-26T11:42:04.510Z,98.45
2019-01-26T11:43:04.497Z,98.54
2019-01-26T11:44:04.484Z,98.16
2019-01-26T11:45:04.493Z,98.64
2019-01-26T11:46:04.459Z,98.54
2019-01-26T11:47:04.446Z,98.54
2019-01-26T11:48:04.433Z,98.4
2019-01-26T11:49:04.417Z,98.35
2019-01-26T11:50:04.412Z,98.5
2019-01-26T11:51:04.395Z,98.5
2019-01-26T11:52:04.383Z,98.5
2019-01-26T11:53:04.370Z,97.92
2019-01-26T11:54:04.386Z,97.92
2019-01-26T11:55:04.349Z,98.26
2019-01-26T11:56:04.348Z,98.35
2019-01-26T11:57:04.316Z,98.45
2019-01-26T11:58:04.307Z,98.5
2019-01-26T11:59:04.297Z,98.31
2019-01-26T12:00:04.288Z,98.31
2019-01-26T12:01:04.266Z,98.31
2019-01-26T12:02:04.255Z,98.31
2019-01-26T12:03:05.979Z,98.59
2019-01-26T12:04:04.231Z,98.5
2019-01-26T12:05:04.217Z,98.31
2019-01-26T12:06:04.207Z,98.5
2019-01-26T12:07:04.194Z,98.69
2019-01-26T12:08:04.181Z,98.5
2019-01-26T12:09:04.167Z,98.5
2019-01-26T12:10:04.170Z,98.5
2019-01-26T12:11:04.140Z,98.4
2019-01-26T12:12:04.127Z,97.83
2019-01-26T12:13:04.115Z,97.83
2019-01-26T12:14:04.107Z,97.92
2019-01-26T12:15:04.092Z,97.92
2019-01-26T12:16:04.077Z,97.83
2019-01-26T12:17:04.066Z,97.92
2019-01-26T12:18:04.054Z,98.02
2019-01-26T12:19:04.038Z,98.21
2019-01-26T12:20:04.033Z,98.31
2019-01-26T12:21:04.019Z,98.02
2019-01-26T12:22:04.001Z,98.31
2019-01-26T12:23:03.990Z,98.12
2019-01-26T12:24:03.979Z,98.21
2019-01-26T12:25:03.966Z,98.31
2019-01-26T12:26:03.956Z,98.59
2019-01-26T12:27:03.943Z,98.02
2019-01-26T12:28:03.931Z,98.12
2019-01-26T12:29:03.919Z,98.21
2019-01-26T12:30:03.663Z,97.74
2019-01-26T12:31:03.909Z,98.79
2019-01-26T12:32:03.880Z,98.69
2019-01-26T12:33:03.872Z,98.02
2019-01-26T12:34:03.859Z,98.21
2019-01-26T12:35:03.845Z,97.83
2019-01-26T12:36:03.829Z,98.02
2019-01-26T12:37:03.818Z,98.12
2019-01-26T12:38:03.808Z,97.83
2019-01-26T12:39:03.793Z,98.02
2019-01-26T12:40:03.784Z,98.02
2019-01-26T12:41:03.525Z,98.69
2019-01-26T12:42:03.764Z,98.12
2019-01-26T12:43:03.743Z,98.21
2019-01-26T12:44:03.733Z,98.31
2019-01-26T12:45:03.905Z,98.4
2019-01-26T12:46:03.764Z,98.21
2019-01-26T12:47:03.694Z,98.4
2019-01-26T12:48:03.683Z,98.5
2019-01-26T12:49:03.673Z,98.4
2019-01-26T12:50:04.742Z,98.5
2019-01-26T12:51:03.644Z,98.79
2019-01-26T12:52:03.633Z,98.12
2019-01-26T12:53:03.622Z,98.5
2019-01-26T12:54:03.607Z,98.31